createdAt,value
2018-02-24T12:45:35.656Z,102695.42
2018-02-24T12:50:50.160Z,102672.48
2018-02-24T12:55:52.648Z,102647.53
2018-02-24T13:00:55.113Z,102699.41
2018-02-24T13:05:57.574Z,102691.63
2018-02-24T13:11:00.047Z,102699.64
2018-02-24T13:16:02.613Z,102700.23
2018-02-24T13:21:05.102Z,102703.28
2018-02-24T13:26:07.581Z,102697.58
2018-02-24T13:31:10.053Z,102704.69
2018-02-24T13:36:12.525Z,102710.09
2018-02-24T13:41:14.994Z,102704.93
2018-02-24T13:46:17.532Z,102693.88
2018-02-24T13:51:20.005Z,102707.86
2018-02-24T13:56:22.498Z,102703.53
2018-02-24T14:01:24.981Z,102703.75
2018-02-24T14:06:27.461Z,102712.81
2018-02-24T14:11:29.994Z,102713.78
2018-02-24T14:16:41.531Z,102711.17
2018-02-24T14:21:44.015Z,102715.53
2018-02-24T14:26:46.501Z,102720.89
2018-02-24T14:31:48.995Z,102726.24
2018-02-24T14:36:52.414Z,102731.36
2018-02-24T14:41:54.903Z,102723.05
2018-02-24T14:46:57.392Z,102730.89
2018-02-24T14:51:59.912Z,102732.31
2018-02-24T14:57:02.510Z,102741.28
2018-02-24T15:02:05.044Z,102725.53
2018-02-24T15:07:07.524Z,102724.64
2018-02-24T15:12:09.996Z,102722.79
2018-02-24T15:17:12.498Z,102724.23
2018-02-24T15:22:15.092Z,102738.06
2018-02-24T15:27:17.594Z,102738.79
2018-02-24T15:32:20.096Z,102743.72
2018-02-24T15:37:22.578Z,102734.73
2018-02-24T15:42:25.065Z,102745.45
2018-02-24T15:47:28.010Z,102755.26
2018-02-24T15:52:30.484Z,102751.35
2018-02-24T15:57:32.958Z,102757.16
2018-02-24T16:02:35.527Z,102754.72
2018-02-24T16:07:38.005Z,102770.03
2018-02-24T16:12:40.524Z,102772.28
2018-02-24T16:17:43.923Z,102775.42
2018-02-24T16:22:46.514Z,102783.46
2018-02-24T16:27:48.994Z,102792.47
2018-02-24T16:32:51.481Z,102790.94
2018-02-24T16:37:53.964Z,102793.41
2018-02-24T16:42:56.437Z,102798.25
2018-02-24T16:47:58.973Z,102818.93
2018-02-24T16:53:01.618Z,102818.10
2018-02-24T16:58:04.873Z,102820.57
2018-02-24T17:03:07.362Z,102824.77
2018-02-24T17:08:09.884Z,102839.80
2018-02-24T17:13:12.441Z,102837.34
2018-02-24T17:18:14.945Z,102834.81
2018-02-24T17:23:17.436Z,102848.91
2018-02-24T17:28:20.019Z,102858.49
2018-02-24T17:33:22.507Z,102859.94
2018-02-24T17:38:24.988Z,102861.81
2018-02-24T17:43:27.458Z,102864.62
2018-02-24T17:48:29.936Z,102864.84
2018-02-24T17:53:32.408Z,102863.47
2018-02-24T17:58:34.913Z,102866.44
2018-02-24T18:03:37.410Z,102871.36
2018-02-24T18:08:39.918Z,102869.27
2018-02-24T18:13:42.411Z,102867.76
2018-02-24T18:18:44.988Z,102863.48
2018-02-24T18:23:47.515Z,102866.48
2018-02-24T18:28:49.976Z,102866.52
2018-02-24T18:33:52.492Z,102867.34
2018-02-24T18:38:54.993Z,102871.66
2018-02-24T18:43:57.484Z,102883.17
2018-02-24T18:48:59.994Z,102894.64
2018-02-24T18:54:02.466Z,102902.47
2018-02-24T18:59:04.978Z,102901.89
2018-02-24T19:04:07.453Z,102907.11
2018-02-24T19:09:10.106Z,102903.08
2018-02-24T19:14:12.582Z,102920.67
2018-02-24T19:19:15.112Z,102917.69
2018-02-24T19:24:17.593Z,102918.27
2018-02-24T19:29:20.088Z,102922.46
2018-02-24T19:34:22.631Z,102920.71
2018-02-24T19:39:25.128Z,102925.69
2018-02-24T19:44:28.319Z,102923.98
2018-02-24T19:49:30.793Z,102927.70
2018-02-24T19:54:33.279Z,102928.27
2018-02-24T19:59:35.752Z,102936.34
2018-02-24T20:04:38.290Z,102932.75
2018-02-24T20:09:40.796Z,102937.34
2018-02-24T20:14:43.352Z,102935.78
2018-02-24T20:19:45.869Z,102939.81
2018-02-24T20:24:48.363Z,102940.67
2018-02-24T20:29:50.878Z,102941.76
2018-02-24T20:34:53.585Z,102940.55
2018-02-24T20:39:56.070Z,102940.98
2018-02-24T20:44:58.578Z,102942.72
2018-02-24T20:50:01.062Z,102941.48
2018-02-24T20:55:03.563Z,102941.27
2018-02-24T21:00:06.025Z,102952.23
2018-02-24T21:05:08.610Z,102953.98
2018-02-24T21:10:11.083Z,102957.59
2018-02-24T21:15:13.583Z,102977.89
2018-02-24T21:20:16.072Z,102977.95
2018-02-24T21:25:18.585Z,102978.27
2018-02-24T21:30:21.060Z,102980.13
2018-02-24T21:35:23.586Z,102974.97
2018-02-24T21:40:26.173Z,102977.31
2018-02-24T21:45:28.664Z,102978.19
2018-02-24T21:50:31.126Z,102983.48
2018-02-24T21:55:33.618Z,102995.39
2018-02-24T22:00:36.113Z,103002.84
2018-02-24T22:05:38.588Z,103003.99
2018-02-24T22:10:41.067Z,103010.59
2018-02-24T22:15:43.543Z,103006.81
2018-02-24T22:20:46.045Z,103013.30
2018-02-24T22:25:48.532Z,103019.55
2018-02-24T22:30:51.009Z,103018.28
2018-02-24T22:35:53.522Z,103029.85
2018-02-24T22:40:56.014Z,103037.72
2018-02-24T22:45:58.501Z,103038.52
2018-02-24T22:51:01.046Z,103031.86
2018-02-24T22:56:03.532Z,103039.47
2018-02-24T23:01:06.003Z,103037.33
2018-02-24T23:06:08.501Z,103040.45
2018-02-24T23:11:10.981Z,103044.00
2018-02-24T23:16:13.441Z,103045.73
2018-02-24T23:21:16.444Z,103051.02
2018-02-24T23:26:18.918Z,103062.96
2018-02-24T23:31:21.397Z,103053.37
2018-02-24T23:36:23.883Z,103056.01
2018-02-24T23:41:26.366Z,103054.73
2018-02-24T23:46:28.874Z,103049.12
2018-02-24T23:51:31.387Z,103054.36
2018-02-24T23:56:33.884Z,103040.96
